Terminal Aerodrome Forecast
Issued by NWS St Louis, MO

Home | Current Version | Previous Version | Graphics & Text | Print | Product List | Glossary On
Versions: 1 2 3 4 5 6 7 8 9 10 11 12 13 14 15 16 17 18 19 20 21 22 23 24 25 26 27 28 29 30 31
000
FTUS43 KLSX 190100 AAA
TAFSTL
TAF AMD
KSTL 190123Z 1901/2006 07005KT P6SM OVC025
     FM190400 VRB03KT 5SM BR OVC015
     FM190700 VRB03KT 3SM BR OVC008
     FM191000 VRB03KT 2SM BR OVC005
     FM191700 VRB03KT 5SM BR OVC012
     FM192200 11004KT P6SM OVC015=

USA.gov is the U.S. government's official web portal to all federal, state and local government web resources and services.